Rhodes, Greece
Current Conditions -  °F | °C
As of 4:20 PM on Thursday 23 Oct 2014 (Local Time) from LGRP Reporting Station
Broken Clouds Broken Clouds  
Wind Chill: 23°   Ceiling: 18000
Heat Index: 23°   Visibility: 6mi
Dew Point: 19°   Wind: 3mph
Humidity: 78%   Direction: NA
Pressure: 29.77"   Gusts: NA
Location:  36.43°N, 28.22°E
Report Text: LGRP 231320Z VRB03KT 9999 FEW015CB FEW018TCU SCT025 BKN18023/19 Q1008 RETS NOSIG
Loading
Personal Weather Stations






























Interactive Weather Map
Tropical Storm Tracking
New forecast layout! Learn more

10-Day Weather Forecast

Advertisements
Track Severe Weather on mobile